sensor_id;sensor_type;location;lat;lon;timestamp;P1;durP1;ratioP1;P2;durP2;ratioP2
7795;SDS011;3942;51.518;6.912;2022-11-18T00:02:25;4.32;;;1.90;;
7795;SDS011;3942;51.518;6.912;2022-11-18T00:07:27;8.48;;;2.35;;
7795;SDS011;3942;51.518;6.912;2022-11-18T00:12:29;8.98;;;2.50;;
7795;SDS011;3942;51.518;6.912;2022-11-18T00:17:50;7.75;;;3.33;;
7795;SDS011;3942;51.518;6.912;2022-11-18T00:22:52;9.18;;;2.08;;
7795;SDS011;3942;51.518;6.912;2022-11-18T00:27:54;12.18;;;2.88;;
7795;SDS011;3942;51.518;6.912;2022-11-18T00:32:57;10.32;;;3.20;;
7795;SDS011;3942;51.518;6.912;2022-11-18T00:38:00;5.75;;;2.33;;
7795;SDS011;3942;51.518;6.912;2022-11-18T00:43:01;7.20;;;2.05;;
7795;SDS011;3942;51.518;6.912;2022-11-18T00:48:05;3.85;;;2.60;;
7795;SDS011;3942;51.518;6.912;2022-11-18T00:53:07;3.83;;;1.70;;
7795;SDS011;3942;51.518;6.912;2022-11-18T00:58:09;4.38;;;1.65;;
7795;SDS011;3942;51.518;6.912;2022-11-18T01:03:14;7.68;;;1.85;;
7795;SDS011;3942;51.518;6.912;2022-11-18T01:08:17;7.32;;;2.72;;
7795;SDS011;3942;51.518;6.912;2022-11-18T01:13:20;4.07;;;2.13;;
7795;SDS011;3942;51.518;6.912;2022-11-18T01:18:26;4.32;;;1.60;;
7795;SDS011;3942;51.518;6.912;2022-11-18T01:23:30;5.57;;;2.38;;
7795;SDS011;3942;51.518;6.912;2022-11-18T01:28:33;6.65;;;2.13;;
7795;SDS011;3942;51.518;6.912;2022-11-18T01:33:36;11.30;;;2.17;;
7795;SDS011;3942;51.518;6.912;2022-11-18T01:38:38;9.82;;;2.42;;
7795;SDS011;3942;51.518;6.912;2022-11-18T01:43:48;12.70;;;2.53;;
7795;SDS011;3942;51.518;6.912;2022-11-18T01:48:52;8.10;;;2.28;;
7795;SDS011;3942;51.518;6.912;2022-11-18T01:53:59;6.45;;;2.53;;
7795;SDS011;3942;51.518;6.912;2022-11-18T01:59:04;10.63;;;2.58;;
7795;SDS011;3942;51.518;6.912;2022-11-18T02:04:10;8.80;;;2.15;;
7795;SDS011;3942;51.518;6.912;2022-11-18T02:09:13;9.32;;;3.33;;
7795;SDS011;3942;51.518;6.912;2022-11-18T02:14:16;11.98;;;2.95;;
7795;SDS011;3942;51.518;6.912;2022-11-18T02:19:28;6.07;;;2.30;;
7795;SDS011;3942;51.518;6.912;2022-11-18T02:24:42;10.18;;;2.53;;
7795;SDS011;3942;51.518;6.912;2022-11-18T02:29:57;8.05;;;2.47;;
7795;SDS011;3942;51.518;6.912;2022-11-18T02:35:04;7.60;;;2.70;;
7795;SDS011;3942;51.518;6.912;2022-11-18T02:40:11;9.48;;;2.38;;
7795;SDS011;3942;51.518;6.912;2022-11-18T02:45:17;10.02;;;2.53;;
7795;SDS011;3942;51.518;6.912;2022-11-18T02:50:23;8.48;;;2.40;;
7795;SDS011;3942;51.518;6.912;2022-11-18T02:55:27;10.27;;;3.10;;
7795;SDS011;3942;51.518;6.912;2022-11-18T03:00:31;5.28;;;2.67;;
7795;SDS011;3942;51.518;6.912;2022-11-18T03:05:35;8.32;;;3.25;;
7795;SDS011;3942;51.518;6.912;2022-11-18T03:10:44;14.25;;;3.40;;
7795;SDS011;3942;51.518;6.912;2022-11-18T03:15:54;10.15;;;3.63;;
7795;SDS011;3942;51.518;6.912;2022-11-18T03:21:04;10.57;;;3.20;;
7795;SDS011;3942;51.518;6.912;2022-11-18T03:26:08;7.88;;;3.25;;
7795;SDS011;3942;51.518;6.912;2022-11-18T03:31:17;5.30;;;2.80;;
7795;SDS011;3942;51.518;6.912;2022-11-18T03:36:23;11.02;;;3.40;;
7795;SDS011;3942;51.518;6.912;2022-11-18T03:41:28;7.50;;;3.00;;
7795;SDS011;3942;51.518;6.912;2022-11-18T03:46:37;7.90;;;3.15;;
7795;SDS011;3942;51.518;6.912;2022-11-18T03:51:40;10.65;;;2.88;;
7795;SDS011;3942;51.518;6.912;2022-11-18T03:56:45;6.88;;;2.97;;
7795;SDS011;3942;51.518;6.912;2022-11-18T04:01:53;9.23;;;3.47;;
7795;SDS011;3942;51.518;6.912;2022-11-18T04:06:58;6.93;;;3.03;;
7795;SDS011;3942;51.518;6.912;2022-11-18T04:12:05;8.27;;;3.17;;
7795;SDS011;3942;51.518;6.912;2022-11-18T04:17:10;6.18;;;2.67;;
7795;SDS011;3942;51.518;6.912;2022-11-18T04:22:12;9.30;;;2.97;;
7795;SDS011;3942;51.518;6.912;2022-11-18T04:27:14;7.90;;;3.30;;
7795;SDS011;3942;51.518;6.912;2022-11-18T04:32:17;8.40;;;3.10;;
7795;SDS011;3942;51.518;6.912;2022-11-18T04:37:19;7.95;;;3.13;;
7795;SDS011;3942;51.518;6.912;2022-11-18T04:42:22;13.70;;;4.60;;
7795;SDS011;3942;51.518;6.912;2022-11-18T04:47:25;11.63;;;5.80;;
7795;SDS011;3942;51.518;6.912;2022-11-18T04:52:27;10.93;;;4.50;;
7795;SDS011;3942;51.518;6.912;2022-11-18T04:57:29;9.48;;;4.68;;
7795;SDS011;3942;51.518;6.912;2022-11-18T05:02:32;7.40;;;3.50;;
7795;SDS011;3942;51.518;6.912;2022-11-18T05:07:34;11.70;;;3.55;;
7795;SDS011;3942;51.518;6.912;2022-11-18T05:12:36;13.52;;;6.90;;
7795;SDS011;3942;51.518;6.912;2022-11-18T05:17:52;7.25;;;3.22;;
7795;SDS011;3942;51.518;6.912;2022-11-18T05:22:55;9.65;;;2.90;;
7795;SDS011;3942;51.518;6.912;2022-11-18T05:27:57;6.47;;;2.80;;
7795;SDS011;3942;51.518;6.912;2022-11-18T05:33:00;9.07;;;3.88;;
7795;SDS011;3942;51.518;6.912;2022-11-18T05:38:02;10.52;;;3.28;;
7795;SDS011;3942;51.518;6.912;2022-11-18T05:43:04;25.65;;;14.30;;
7795;SDS011;3942;51.518;6.912;2022-11-18T05:48:14;12.73;;;6.95;;
7795;SDS011;3942;51.518;6.912;2022-11-18T05:53:17;13.48;;;5.20;;
7795;SDS011;3942;51.518;6.912;2022-11-18T05:58:19;10.95;;;3.50;;
7795;SDS011;3942;51.518;6.912;2022-11-18T06:03:23;13.98;;;4.18;;
7795;SDS011;3942;51.518;6.912;2022-11-18T06:08:27;10.95;;;3.85;;
7795;SDS011;3942;51.518;6.912;2022-11-18T06:13:33;15.63;;;4.15;;
7795;SDS011;3942;51.518;6.912;2022-11-18T06:18:41;11.88;;;3.92;;
7795;SDS011;3942;51.518;6.912;2022-11-18T06:23:43;13.50;;;4.45;;
7795;SDS011;3942;51.518;6.912;2022-11-18T06:28:46;8.80;;;3.40;;
7795;SDS011;3942;51.518;6.912;2022-11-18T06:33:50;7.25;;;3.38;;
7795;SDS011;3942;51.518;6.912;2022-11-18T06:38:52;14.48;;;3.63;;
7795;SDS011;3942;51.518;6.912;2022-11-18T06:43:54;11.73;;;4.03;;
7795;SDS011;3942;51.518;6.912;2022-11-18T06:48:58;9.07;;;3.97;;
7795;SDS011;3942;51.518;6.912;2022-11-18T06:54:00;12.50;;;4.32;;
7795;SDS011;3942;51.518;6.912;2022-11-18T06:59:02;11.55;;;4.38;;
7795;SDS011;3942;51.518;6.912;2022-11-18T07:04:06;12.27;;;4.88;;
7795;SDS011;3942;51.518;6.912;2022-11-18T07:09:08;8.45;;;3.72;;
7795;SDS011;3942;51.518;6.912;2022-11-18T07:14:11;11.70;;;5.50;;
7795;SDS011;3942;51.518;6.912;2022-11-18T07:19:15;10.98;;;4.28;;
7795;SDS011;3942;51.518;6.912;2022-11-18T07:24:17;10.52;;;3.95;;
7795;SDS011;3942;51.518;6.912;2022-11-18T07:29:19;15.60;;;4.55;;
7795;SDS011;3942;51.518;6.912;2022-11-18T07:34:22;17.60;;;7.15;;
7795;SDS011;3942;51.518;6.912;2022-11-18T07:39:24;49.47;;;29.27;;
7795;SDS011;3942;51.518;6.912;2022-11-18T07:44:27;52.55;;;27.52;;
7795;SDS011;3942;51.518;6.912;2022-11-18T07:49:30;70.28;;;34.03;;
7795;SDS011;3942;51.518;6.912;2022-11-18T07:54:32;65.25;;;28.02;;
7795;SDS011;3942;51.518;6.912;2022-11-18T07:59:34;84.95;;;38.28;;
7795;SDS011;3942;51.518;6.912;2022-11-18T08:04:37;34.05;;;15.02;;
7795;SDS011;3942;51.518;6.912;2022-11-18T08:09:39;21.00;;;9.95;;
7795;SDS011;3942;51.518;6.912;2022-11-18T08:14:41;15.30;;;6.38;;
7795;SDS011;3942;51.518;6.912;2022-11-18T08:19:45;37.25;;;16.52;;
7795;SDS011;3942;51.518;6.912;2022-11-18T08:24:47;18.40;;;8.18;;
7795;SDS011;3942;51.518;6.912;2022-11-18T08:29:49;21.05;;;9.02;;
7795;SDS011;3942;51.518;6.912;2022-11-18T08:34:53;12.18;;;6.22;;
7795;SDS011;3942;51.518;6.912;2022-11-18T08:39:55;21.45;;;8.65;;
7795;SDS011;3942;51.518;6.912;2022-11-18T08:44:57;15.00;;;6.30;;
7795;SDS011;3942;51.518;6.912;2022-11-18T08:50:00;15.30;;;6.38;;
7795;SDS011;3942;51.518;6.912;2022-11-18T08:55:03;15.52;;;6.32;;
7795;SDS011;3942;51.518;6.912;2022-11-18T09:00:08;14.80;;;6.85;;
7795;SDS011;3942;51.518;6.912;2022-11-18T09:05:12;19.95;;;9.93;;
7795;SDS011;3942;51.518;6.912;2022-11-18T09:10:14;17.67;;;8.32;;
7795;SDS011;3942;51.518;6.912;2022-11-18T09:15:16;20.58;;;7.53;;
7795;SDS011;3942;51.518;6.912;2022-11-18T09:20:20;17.75;;;6.90;;
7795;SDS011;3942;51.518;6.912;2022-11-18T09:25:22;15.45;;;7.55;;
7795;SDS011;3942;51.518;6.912;2022-11-18T09:30:24;14.93;;;5.93;;
7795;SDS011;3942;51.518;6.912;2022-11-18T09:35:27;12.43;;;4.90;;
7795;SDS011;3942;51.518;6.912;2022-11-18T09:40:29;26.42;;;7.78;;
7795;SDS011;3942;51.518;6.912;2022-11-18T09:45:32;14.73;;;5.90;;
7795;SDS011;3942;51.518;6.912;2022-11-18T09:50:39;8.75;;;4.82;;
7795;SDS011;3942;51.518;6.912;2022-11-18T09:55:41;8.52;;;4.60;;
7795;SDS011;3942;51.518;6.912;2022-11-18T10:00:43;11.82;;;5.05;;
7795;SDS011;3942;51.518;6.912;2022-11-18T10:05:48;17.02;;;5.15;;
7795;SDS011;3942;51.518;6.912;2022-11-18T10:10:57;18.60;;;8.13;;
7795;SDS011;3942;51.518;6.912;2022-11-18T10:16:09;15.13;;;5.05;;
7795;SDS011;3942;51.518;6.912;2022-11-18T10:21:22;13.23;;;5.03;;
7795;SDS011;3942;51.518;6.912;2022-11-18T10:26:34;11.23;;;5.47;;
7795;SDS011;3942;51.518;6.912;2022-11-18T10:31:37;19.08;;;10.13;;
7795;SDS011;3942;51.518;6.912;2022-11-18T10:36:41;12.70;;;6.00;;
7795;SDS011;3942;51.518;6.912;2022-11-18T10:41:44;13.77;;;6.35;;
7795;SDS011;3942;51.518;6.912;2022-11-18T10:46:48;17.27;;;5.18;;
7795;SDS011;3942;51.518;6.912;2022-11-18T10:52:05;13.57;;;5.07;;
7795;SDS011;3942;51.518;6.912;2022-11-18T10:57:14;11.90;;;5.53;;
7795;SDS011;3942;51.518;6.912;2022-11-18T11:02:19;13.52;;;5.45;;
7795;SDS011;3942;51.518;6.912;2022-11-18T11:07:31;16.27;;;7.95;;
7795;SDS011;3942;51.518;6.912;2022-11-18T11:12:35;13.73;;;5.85;;
7795;SDS011;3942;51.518;6.912;2022-11-18T11:17:47;14.23;;;5.88;;
7795;SDS011;3942;51.518;6.912;2022-11-18T11:23:14;12.77;;;5.65;;
7795;SDS011;3942;51.518;6.912;2022-11-18T11:28:17;10.13;;;5.78;;
7795;SDS011;3942;51.518;6.912;2022-11-18T11:33:29;12.32;;;4.95;;
7795;SDS011;3942;51.518;6.912;2022-11-18T11:38:44;16.98;;;5.22;;
7795;SDS011;3942;51.518;6.912;2022-11-18T11:43:58;17.60;;;9.15;;
7795;SDS011;3942;51.518;6.912;2022-11-18T11:49:20;11.35;;;5.30;;
7795;SDS011;3942;51.518;6.912;2022-11-18T11:54:32;10.32;;;5.03;;
7795;SDS011;3942;51.518;6.912;2022-11-18T11:59:48;15.65;;;4.50;;
7795;SDS011;3942;51.518;6.912;2022-11-18T12:04:59;18.50;;;5.55;;
7795;SDS011;3942;51.518;6.912;2022-11-18T12:10:07;13.27;;;5.70;;
7795;SDS011;3942;51.518;6.912;2022-11-18T12:15:25;15.02;;;6.80;;
7795;SDS011;3942;51.518;6.912;2022-11-18T12:20:43;17.33;;;6.25;;
7795;SDS011;3942;51.518;6.912;2022-11-18T12:25:52;32.28;;;15.70;;
7795;SDS011;3942;51.518;6.912;2022-11-18T12:36:33;16.17;;;7.03;;
7795;SDS011;3942;51.518;6.912;2022-11-18T12:41:54;17.40;;;7.57;;
7795;SDS011;3942;51.518;6.912;2022-11-18T12:47:15;16.80;;;7.65;;
7795;SDS011;3942;51.518;6.912;2022-11-18T12:52:53;17.02;;;7.10;;
7795;SDS011;3942;51.518;6.912;2022-11-18T12:57:55;11.27;;;5.28;;
7795;SDS011;3942;51.518;6.912;2022-11-18T13:02:58;11.95;;;3.85;;
7795;SDS011;3942;51.518;6.912;2022-11-18T13:08:02;18.08;;;5.15;;
7795;SDS011;3942;51.518;6.912;2022-11-18T13:13:24;17.33;;;5.05;;
7795;SDS011;3942;51.518;6.912;2022-11-18T13:18:28;17.13;;;6.20;;
7795;SDS011;3942;51.518;6.912;2022-11-18T13:23:32;11.60;;;3.92;;
7795;SDS011;3942;51.518;6.912;2022-11-18T13:28:58;12.38;;;3.63;;
7795;SDS011;3942;51.518;6.912;2022-11-18T13:34:09;15.20;;;6.50;;
7795;SDS011;3942;51.518;6.912;2022-11-18T13:39:21;22.75;;;7.43;;
7795;SDS011;3942;51.518;6.912;2022-11-18T13:44:24;15.90;;;4.47;;
7795;SDS011;3942;51.518;6.912;2022-11-18T13:49:31;10.05;;;3.72;;
7795;SDS011;3942;51.518;6.912;2022-11-18T13:54:44;15.93;;;7.28;;
7795;SDS011;3942;51.518;6.912;2022-11-18T13:59:46;11.32;;;4.88;;
7795;SDS011;3942;51.518;6.912;2022-11-18T14:04:52;11.43;;;4.63;;
7795;SDS011;3942;51.518;6.912;2022-11-18T14:09:58;10.85;;;3.80;;
7795;SDS011;3942;51.518;6.912;2022-11-18T14:15:11;10.50;;;4.22;;
7795;SDS011;3942;51.518;6.912;2022-11-18T14:20:14;15.25;;;6.53;;
7795;SDS011;3942;51.518;6.912;2022-11-18T14:25:20;18.98;;;4.47;;
7795;SDS011;3942;51.518;6.912;2022-11-18T14:30:31;55.08;;;32.05;;
7795;SDS011;3942;51.518;6.912;2022-11-18T14:35:35;18.00;;;8.82;;
7795;SDS011;3942;51.518;6.912;2022-11-18T14:40:39;11.35;;;4.00;;
7795;SDS011;3942;51.518;6.912;2022-11-18T14:45:42;13.27;;;3.40;;
7795;SDS011;3942;51.518;6.912;2022-11-18T14:50:44;13.57;;;3.60;;
7795;SDS011;3942;51.518;6.912;2022-11-18T14:55:49;9.80;;;2.90;;
7795;SDS011;3942;51.518;6.912;2022-11-18T15:00:51;8.32;;;2.97;;
7795;SDS011;3942;51.518;6.912;2022-11-18T15:05:53;8.98;;;3.38;;
7795;SDS011;3942;51.518;6.912;2022-11-18T15:10:57;9.70;;;3.20;;
7795;SDS011;3942;51.518;6.912;2022-11-18T15:15:59;7.63;;;2.90;;
7795;SDS011;3942;51.518;6.912;2022-11-18T15:21:02;50.85;;;22.38;;
7795;SDS011;3942;51.518;6.912;2022-11-18T15:26:11;31.73;;;18.73;;
7795;SDS011;3942;51.518;6.912;2022-11-18T15:31:19;11.85;;;4.03;;
7795;SDS011;3942;51.518;6.912;2022-11-18T15:36:22;15.98;;;4.75;;
7795;SDS011;3942;51.518;6.912;2022-11-18T15:41:28;13.95;;;4.47;;
7795;SDS011;3942;51.518;6.912;2022-11-18T15:46:30;14.82;;;7.28;;
7795;SDS011;3942;51.518;6.912;2022-11-18T15:51:33;17.60;;;8.45;;
7795;SDS011;3942;51.518;6.912;2022-11-18T15:56:36;22.70;;;9.63;;
7795;SDS011;3942;51.518;6.912;2022-11-18T16:01:39;11.20;;;4.97;;
7795;SDS011;3942;51.518;6.912;2022-11-18T16:06:42;10.23;;;4.50;;
7795;SDS011;3942;51.518;6.912;2022-11-18T16:11:45;15.40;;;5.00;;
7795;SDS011;3942;51.518;6.912;2022-11-18T16:17:04;16.38;;;4.72;;
7795;SDS011;3942;51.518;6.912;2022-11-18T16:22:06;9.02;;;4.93;;
7795;SDS011;3942;51.518;6.912;2022-11-18T16:27:10;13.82;;;4.05;;
7795;SDS011;3942;51.518;6.912;2022-11-18T16:32:12;7.90;;;4.22;;
7795;SDS011;3942;51.518;6.912;2022-11-18T16:37:14;9.30;;;5.22;;
7795;SDS011;3942;51.518;6.912;2022-11-18T16:42:18;15.45;;;6.55;;
7795;SDS011;3942;51.518;6.912;2022-11-18T16:47:20;12.82;;;6.40;;
7795;SDS011;3942;51.518;6.912;2022-11-18T16:52:22;15.90;;;7.47;;
7795;SDS011;3942;51.518;6.912;2022-11-18T16:57:26;16.80;;;7.93;;
7795;SDS011;3942;51.518;6.912;2022-11-18T17:02:28;15.50;;;7.50;;
7795;SDS011;3942;51.518;6.912;2022-11-18T17:07:30;20.83;;;8.43;;
7795;SDS011;3942;51.518;6.912;2022-11-18T17:12:33;16.23;;;8.65;;
7795;SDS011;3942;51.518;6.912;2022-11-18T17:17:36;15.65;;;7.68;;
7795;SDS011;3942;51.518;6.912;2022-11-18T17:22:38;30.35;;;16.92;;
7795;SDS011;3942;51.518;6.912;2022-11-18T17:27:42;40.15;;;24.50;;
7795;SDS011;3942;51.518;6.912;2022-11-18T17:32:44;20.73;;;11.88;;
7795;SDS011;3942;51.518;6.912;2022-11-18T17:37:46;18.90;;;10.15;;
7795;SDS011;3942;51.518;6.912;2022-11-18T17:42:50;30.77;;;17.27;;
7795;SDS011;3942;51.518;6.912;2022-11-18T17:47:52;27.25;;;14.93;;
7795;SDS011;3942;51.518;6.912;2022-11-18T17:52:56;26.00;;;16.50;;
7795;SDS011;3942;51.518;6.912;2022-11-18T17:57:59;24.67;;;16.95;;
7795;SDS011;3942;51.518;6.912;2022-11-18T18:03:02;27.95;;;17.77;;
7795;SDS011;3942;51.518;6.912;2022-11-18T18:08:04;33.95;;;20.23;;
7795;SDS011;3942;51.518;6.912;2022-11-18T18:13:10;35.47;;;19.88;;
7795;SDS011;3942;51.518;6.912;2022-11-18T18:18:29;33.42;;;20.08;;
7795;SDS011;3942;51.518;6.912;2022-11-18T18:23:32;26.05;;;15.25;;
7795;SDS011;3942;51.518;6.912;2022-11-18T18:28:36;28.38;;;14.27;;
7795;SDS011;3942;51.518;6.912;2022-11-18T18:33:44;28.00;;;16.17;;
7795;SDS011;3942;51.518;6.912;2022-11-18T18:38:46;26.95;;;15.52;;
7795;SDS011;3942;51.518;6.912;2022-11-18T18:43:50;24.60;;;15.25;;
7795;SDS011;3942;51.518;6.912;2022-11-18T18:48:53;20.15;;;11.70;;
7795;SDS011;3942;51.518;6.912;2022-11-18T18:53:56;24.63;;;14.55;;
7795;SDS011;3942;51.518;6.912;2022-11-18T18:59:00;39.50;;;21.67;;
7795;SDS011;3942;51.518;6.912;2022-11-18T19:04:03;33.15;;;17.02;;
7795;SDS011;3942;51.518;6.912;2022-11-18T19:09:06;32.25;;;18.33;;
7795;SDS011;3942;51.518;6.912;2022-11-18T19:14:10;37.35;;;20.98;;
7795;SDS011;3942;51.518;6.912;2022-11-18T19:19:14;33.80;;;18.75;;
7795;SDS011;3942;51.518;6.912;2022-11-18T19:24:16;33.30;;;17.70;;
7795;SDS011;3942;51.518;6.912;2022-11-18T19:29:20;34.00;;;19.30;;
7795;SDS011;3942;51.518;6.912;2022-11-18T19:34:22;27.02;;;16.52;;
7795;SDS011;3942;51.518;6.912;2022-11-18T19:39:25;25.83;;;14.70;;
7795;SDS011;3942;51.518;6.912;2022-11-18T19:44:28;22.40;;;13.68;;
7795;SDS011;3942;51.518;6.912;2022-11-18T19:49:31;21.48;;;12.68;;
7795;SDS011;3942;51.518;6.912;2022-11-18T19:54:33;23.52;;;14.00;;
7795;SDS011;3942;51.518;6.912;2022-11-18T19:59:37;26.20;;;14.48;;
7795;SDS011;3942;51.518;6.912;2022-11-18T20:04:39;18.38;;;10.43;;
7795;SDS011;3942;51.518;6.912;2022-11-18T20:10:02;21.67;;;13.75;;
7795;SDS011;3942;51.518;6.912;2022-11-18T20:15:10;21.83;;;12.57;;
7795;SDS011;3942;51.518;6.912;2022-11-18T20:20:12;21.25;;;11.18;;
7795;SDS011;3942;51.518;6.912;2022-11-18T20:25:14;28.92;;;15.52;;
7795;SDS011;3942;51.518;6.912;2022-11-18T20:30:18;29.13;;;15.55;;
7795;SDS011;3942;51.518;6.912;2022-11-18T20:35:20;23.10;;;13.45;;
7795;SDS011;3942;51.518;6.912;2022-11-18T20:40:22;31.52;;;17.95;;
7795;SDS011;3942;51.518;6.912;2022-11-18T20:45:26;35.78;;;18.88;;
7795;SDS011;3942;51.518;6.912;2022-11-18T20:50:28;36.65;;;19.80;;
7795;SDS011;3942;51.518;6.912;2022-11-18T20:55:33;33.33;;;18.55;;
7795;SDS011;3942;51.518;6.912;2022-11-18T21:00:38;28.80;;;12.55;;
7795;SDS011;3942;51.518;6.912;2022-11-18T21:05:40;38.78;;;21.75;;
7795;SDS011;3942;51.518;6.912;2022-11-18T21:10:42;37.78;;;20.98;;
7795;SDS011;3942;51.518;6.912;2022-11-18T21:15:46;39.28;;;23.92;;
7795;SDS011;3942;51.518;6.912;2022-11-18T21:20:47;41.88;;;24.05;;
7795;SDS011;3942;51.518;6.912;2022-11-18T21:26:07;37.38;;;23.27;;
7795;SDS011;3942;51.518;6.912;2022-11-18T21:31:10;39.63;;;22.23;;
7795;SDS011;3942;51.518;6.912;2022-11-18T21:36:12;31.90;;;16.55;;
7795;SDS011;3942;51.518;6.912;2022-11-18T21:41:14;42.38;;;24.08;;
7795;SDS011;3942;51.518;6.912;2022-11-18T21:46:18;27.13;;;16.58;;
7795;SDS011;3942;51.518;6.912;2022-11-18T21:51:21;27.85;;;15.50;;
7795;SDS011;3942;51.518;6.912;2022-11-18T21:56:24;30.27;;;18.27;;
7795;SDS011;3942;51.518;6.912;2022-11-18T22:01:29;23.50;;;13.60;;
7795;SDS011;3942;51.518;6.912;2022-11-18T22:06:33;22.63;;;12.50;;
7795;SDS011;3942;51.518;6.912;2022-11-18T22:11:35;24.83;;;14.07;;
7795;SDS011;3942;51.518;6.912;2022-11-18T22:16:39;18.55;;;10.63;;
7795;SDS011;3942;51.518;6.912;2022-11-18T22:21:41;26.77;;;15.70;;
7795;SDS011;3942;51.518;6.912;2022-11-18T22:26:46;25.67;;;13.98;;
7795;SDS011;3942;51.518;6.912;2022-11-18T22:31:49;28.85;;;17.70;;
7795;SDS011;3942;51.518;6.912;2022-11-18T22:36:52;29.48;;;16.52;;
7795;SDS011;3942;51.518;6.912;2022-11-18T22:41:54;29.13;;;16.80;;
7795;SDS011;3942;51.518;6.912;2022-11-18T22:47:15;23.85;;;13.82;;
7795;SDS011;3942;51.518;6.912;2022-11-18T22:52:17;22.30;;;12.80;;
7795;SDS011;3942;51.518;6.912;2022-11-18T22:57:19;26.35;;;16.35;;
7795;SDS011;3942;51.518;6.912;2022-11-18T23:02:23;23.85;;;13.05;;
7795;SDS011;3942;51.518;6.912;2022-11-18T23:07:25;24.30;;;15.65;;
7795;SDS011;3942;51.518;6.912;2022-11-18T23:12:27;30.45;;;15.48;;
7795;SDS011;3942;51.518;6.912;2022-11-18T23:17:48;25.83;;;15.20;;
7795;SDS011;3942;51.518;6.912;2022-11-18T23:22:50;24.02;;;15.27;;
7795;SDS011;3942;51.518;6.912;2022-11-18T23:27:53;31.77;;;16.42;;
7795;SDS011;3942;51.518;6.912;2022-11-18T23:32:56;20.25;;;12.82;;
7795;SDS011;3942;51.518;6.912;2022-11-18T23:37:58;30.30;;;15.48;;
7795;SDS011;3942;51.518;6.912;2022-11-18T23:43:00;19.13;;;11.10;;
7795;SDS011;3942;51.518;6.912;2022-11-18T23:48:03;18.35;;;11.95;;
7795;SDS011;3942;51.518;6.912;2022-11-18T23:53:06;20.80;;;12.10;;
7795;SDS011;3942;51.518;6.912;2022-11-18T23:58:08;23.35;;;12.75;;
